createdAt,value
2022-10-02T00:00:13.415Z,2.15
2022-10-02T00:02:43.021Z,2.30
2022-10-02T00:05:17.578Z,2.50
2022-10-02T00:07:52.162Z,2.80
2022-10-02T00:10:31.850Z,3.00
2022-10-02T00:13:04.960Z,2.63
2022-10-02T00:15:37.736Z,2.35
2022-10-02T00:18:13.950Z,2.60
2022-10-02T00:21:00.376Z,2.20
2022-10-02T00:23:37.581Z,2.65
2022-10-02T00:26:22.184Z,2.45
2022-10-02T00:29:10.259Z,2.78
2022-10-02T00:31:52.317Z,2.50
2022-10-02T00:34:42.513Z,2.20
2022-10-02T00:37:32.496Z,2.75
2022-10-02T00:40:41.263Z,2.47
2022-10-02T00:43:23.450Z,2.25
2022-10-02T00:46:13.826Z,2.45
2022-10-02T00:48:53.242Z,2.67
2022-10-02T00:51:56.158Z,2.13
2022-10-02T00:55:17.487Z,2.92
2022-10-02T00:58:08.334Z,2.25
2022-10-02T01:00:35.780Z,2.67
2022-10-02T01:03:11.638Z,2.28
2022-10-02T01:05:40.080Z,2.83
2022-10-02T01:08:10.544Z,2.17
2022-10-02T01:10:38.720Z,2.15
2022-10-02T01:13:06.795Z,2.42
2022-10-02T01:15:37.552Z,2.53
2022-10-02T01:18:06.704Z,2.35
2022-10-02T01:20:35.715Z,2.22
2022-10-02T01:23:10.578Z,2.30
2022-10-02T01:25:37.951Z,2.72
2022-10-02T01:28:08.540Z,2.50
2022-10-02T01:30:38.642Z,2.40
2022-10-02T01:33:06.015Z,2.40
2022-10-02T01:35:37.391Z,2.33
2022-10-02T01:38:13.860Z,2.80
2022-10-02T01:40:41.908Z,2.10
2022-10-02T01:43:26.415Z,2.08
2022-10-02T01:46:27.378Z,2.20
2022-10-02T01:49:01.057Z,2.25
2022-10-02T01:51:43.817Z,1.75
2022-10-02T01:54:37.986Z,2.10
2022-10-02T01:57:44.293Z,2.25
2022-10-02T02:00:17.424Z,2.33
2022-10-02T02:02:47.725Z,2.22
2022-10-02T02:05:40.965Z,2.53
2022-10-02T02:08:22.872Z,2.53
2022-10-02T02:11:14.560Z,2.17
2022-10-02T02:13:47.607Z,2.45
2022-10-02T02:16:33.858Z,2.22
2022-10-02T02:19:45.539Z,1.83
2022-10-02T02:22:27.067Z,2.20
2022-10-02T02:25:15.580Z,2.00
2022-10-02T02:27:48.461Z,2.00
2022-10-02T02:30:17.715Z,2.33
2022-10-02T02:33:00.471Z,1.98
2022-10-02T02:35:39.380Z,2.53
2022-10-02T02:38:41.667Z,2.45
2022-10-02T02:41:21.069Z,1.85
2022-10-02T02:44:28.128Z,1.90
2022-10-02T02:47:03.648Z,1.98
2022-10-02T02:49:41.187Z,2.20
2022-10-02T02:52:12.779Z,1.67
2022-10-02T02:55:12.971Z,1.60
2022-10-02T02:58:18.983Z,2.20
2022-10-02T03:00:46.648Z,1.63
2022-10-02T03:03:16.868Z,1.65
2022-10-02T03:05:48.872Z,1.65
2022-10-02T03:08:24.746Z,1.58
2022-10-02T03:11:10.727Z,1.77
2022-10-02T03:14:01.384Z,1.52
2022-10-02T03:16:44.987Z,1.52
2022-10-02T03:19:38.073Z,2.05
2022-10-02T03:22:11.784Z,1.63
2022-10-02T03:25:03.232Z,1.88
2022-10-02T03:27:38.745Z,1.45
2022-10-02T03:30:11.639Z,1.30
2022-10-02T03:32:41.633Z,2.50
2022-10-02T03:35:13.319Z,1.92
2022-10-02T03:37:47.576Z,2.13
2022-10-02T03:40:14.821Z,1.58
2022-10-02T03:42:42.335Z,2.08
2022-10-02T03:45:09.897Z,1.80
2022-10-02T03:47:37.092Z,1.48
2022-10-02T03:50:04.704Z,1.88
2022-10-02T03:52:34.310Z,1.70
2022-10-02T03:55:17.745Z,1.40
2022-10-02T03:57:48.633Z,1.40
2022-10-02T04:00:29.129Z,1.92
2022-10-02T04:03:00.775Z,1.40
2022-10-02T04:05:39.431Z,1.40
2022-10-02T04:08:21.996Z,1.42
2022-10-02T04:11:18.601Z,1.33
2022-10-02T04:14:02.637Z,1.10
2022-10-02T04:16:44.143Z,1.55
2022-10-02T04:19:53.079Z,1.23
2022-10-02T04:22:38.274Z,1.10
2022-10-02T04:25:20.659Z,1.08
2022-10-02T04:27:47.979Z,1.10
2022-10-02T04:30:17.970Z,1.20
2022-10-02T04:32:48.517Z,1.15
2022-10-02T04:35:53.296Z,1.23
2022-10-02T04:38:41.382Z,0.70
2022-10-02T04:41:17.458Z,1.15
2022-10-02T04:43:56.293Z,1.17
2022-10-02T04:46:49.478Z,0.95
2022-10-02T04:49:28.592Z,1.20
2022-10-02T04:52:01.647Z,0.98
2022-10-02T04:54:52.396Z,1.55
2022-10-02T04:57:31.568Z,0.77
2022-10-02T05:00:10.566Z,0.75
2022-10-02T05:03:07.505Z,0.90
2022-10-02T05:05:46.253Z,1.27
2022-10-02T05:08:27.574Z,1.40
2022-10-02T05:11:17.937Z,1.10
2022-10-02T05:14:03.581Z,1.38
2022-10-02T05:16:37.350Z,1.35
2022-10-02T05:19:27.304Z,1.55
2022-10-02T05:22:29.987Z,1.02
2022-10-02T05:25:02.905Z,1.38
2022-10-02T05:27:51.782Z,1.85
2022-10-02T05:30:21.994Z,0.85
2022-10-02T05:33:08.341Z,1.00
2022-10-02T05:36:12.935Z,1.17
2022-10-02T05:38:51.651Z,1.17
2022-10-02T05:41:47.634Z,1.15
2022-10-02T05:44:22.315Z,1.05
2022-10-02T05:47:18.140Z,1.23
2022-10-02T05:50:14.780Z,1.30
2022-10-02T05:52:54.947Z,1.10
2022-10-02T05:55:55.313Z,1.40
2022-10-02T05:58:26.757Z,1.08
2022-10-02T06:01:11.058Z,1.33
2022-10-02T06:04:01.602Z,1.05
2022-10-02T06:06:43.528Z,1.00
2022-10-02T06:09:26.825Z,1.13
2022-10-02T06:12:07.432Z,1.15
2022-10-02T06:14:40.778Z,1.40
2022-10-02T06:19:47.682Z,1.15
2022-10-02T06:22:33.944Z,1.42
2022-10-02T06:25:27.628Z,1.02
2022-10-02T06:28:21.261Z,1.48
2022-10-02T06:30:56.869Z,1.20
2022-10-02T06:33:26.354Z,0.95
2022-10-02T06:36:21.363Z,1.20
2022-10-02T06:39:31.120Z,1.48
2022-10-02T06:42:26.048Z,1.00
2022-10-02T06:45:10.605Z,1.10
2022-10-02T06:47:59.204Z,1.23
2022-10-02T06:50:46.345Z,0.90
2022-10-02T06:53:29.051Z,1.15
2022-10-02T06:56:10.363Z,1.15
2022-10-02T06:58:49.410Z,1.00
2022-10-02T07:01:47.071Z,1.02
2022-10-02T07:04:42.288Z,0.98
2022-10-02T07:07:39.191Z,1.30
2022-10-02T07:10:15.699Z,1.25
2022-10-02T07:13:11.612Z,1.13
2022-10-02T07:16:09.197Z,1.63
2022-10-02T07:18:42.742Z,1.40
2022-10-02T07:24:02.430Z,1.40
2022-10-02T07:26:49.968Z,1.10
2022-10-02T07:29:39.316Z,1.55
2022-10-02T07:32:35.113Z,0.90
2022-10-02T07:35:23.026Z,1.60
2022-10-02T07:38:07.964Z,1.00
2022-10-02T07:41:09.049Z,1.23
2022-10-02T07:43:56.231Z,1.02
2022-10-02T07:46:26.540Z,0.98
2022-10-02T07:49:18.151Z,0.80
2022-10-02T07:52:16.253Z,0.85
2022-10-02T07:55:08.806Z,0.93
2022-10-02T07:57:52.266Z,1.20
2022-10-02T08:00:25.479Z,1.27
2022-10-02T08:03:08.277Z,1.13
2022-10-02T08:05:58.922Z,1.13
2022-10-02T08:08:51.204Z,1.10
2022-10-02T08:11:28.746Z,0.80
2022-10-02T08:14:08.248Z,1.38
2022-10-02T08:16:43.826Z,1.45
2022-10-02T08:19:33.301Z,1.15
2022-10-02T08:22:22.010Z,1.42
2022-10-02T08:24:56.475Z,1.08
2022-10-02T08:27:57.539Z,1.45
2022-10-02T08:30:24.796Z,1.33
2022-10-02T08:32:53.630Z,0.93
2022-10-02T08:35:22.149Z,1.23
2022-10-02T08:38:10.240Z,1.15
2022-10-02T08:40:50.674Z,1.10
2022-10-02T08:43:45.079Z,0.88
2022-10-02T08:46:13.234Z,1.10
2022-10-02T08:49:02.117Z,0.90
2022-10-02T08:51:47.785Z,1.17
2022-10-02T08:54:46.888Z,1.10
2022-10-02T08:57:27.999Z,0.98
2022-10-02T09:00:06.953Z,1.05
2022-10-02T09:03:13.169Z,1.00
2022-10-02T09:06:01.742Z,0.90
2022-10-02T09:08:51.246Z,1.45
2022-10-02T09:11:45.032Z,1.20
2022-10-02T09:14:18.715Z,1.10
2022-10-02T09:17:30.652Z,1.02
2022-10-02T09:20:10.142Z,0.90
2022-10-02T09:22:59.165Z,0.70
2022-10-02T09:26:10.097Z,0.90
2022-10-02T09:28:59.441Z,1.00
2022-10-02T09:32:04.192Z,0.95
2022-10-02T09:34:53.331Z,0.88
2022-10-02T09:37:45.729Z,0.82
2022-10-02T09:41:00.104Z,0.90
2022-10-02T09:43:39.684Z,0.98
2022-10-02T09:46:12.605Z,0.70
2022-10-02T09:49:02.765Z,1.10
2022-10-02T09:52:04.753Z,0.85
2022-10-02T09:54:50.580Z,0.90
2022-10-02T09:57:35.888Z,0.80
2022-10-02T10:00:06.238Z,0.80
2022-10-02T10:02:46.286Z,0.90
2022-10-02T10:05:34.901Z,0.93
2022-10-02T10:08:30.277Z,0.88
2022-10-02T10:11:00.567Z,0.93
2022-10-02T10:14:02.163Z,0.88
2022-10-02T10:17:13.604Z,0.60
2022-10-02T10:20:22.877Z,0.80
2022-10-02T10:23:07.835Z,1.15
2022-10-02T10:25:58.522Z,1.02
2022-10-02T10:28:43.800Z,1.30
2022-10-02T10:31:31.589Z,1.08
2022-10-02T10:34:02.705Z,0.73
2022-10-02T10:37:12.727Z,0.98
2022-10-02T10:40:21.216Z,1.10
2022-10-02T10:43:34.206Z,0.90
2022-10-02T10:46:36.518Z,1.08
2022-10-02T10:49:28.630Z,1.23
2022-10-02T10:52:19.292Z,1.13
2022-10-02T10:54:55.123Z,1.30
2022-10-02T10:57:25.959Z,0.85
2022-10-02T11:00:17.915Z,1.00
2022-10-02T11:02:58.842Z,1.02
2022-10-02T11:06:05.753Z,1.20
2022-10-02T11:09:00.937Z,1.30
2022-10-02T11:12:13.257Z,1.17
2022-10-02T11:14:48.910Z,1.30
2022-10-02T11:17:48.301Z,1.27
2022-10-02T11:20:35.266Z,1.48
2022-10-02T11:23:24.000Z,1.30
2022-10-02T11:26:22.362Z,1.50
2022-10-02T11:29:16.695Z,1.30
2022-10-02T11:32:02.581Z,1.60
2022-10-02T11:34:55.185Z,1.35
2022-10-02T11:37:37.772Z,1.55
2022-10-02T11:40:35.688Z,1.40
2022-10-02T11:43:48.371Z,1.63
2022-10-02T11:46:52.195Z,1.73
2022-10-02T11:49:40.218Z,1.58
2022-10-02T11:52:21.575Z,1.40
2022-10-02T11:54:56.338Z,1.33
2022-10-02T11:57:48.625Z,1.42
2022-10-02T12:00:53.327Z,1.55
2022-10-02T12:03:36.452Z,1.35
2022-10-02T12:06:32.878Z,1.38
2022-10-02T12:09:31.084Z,1.60
2022-10-02T12:12:17.079Z,1.13
2022-10-02T12:14:53.605Z,1.13
2022-10-02T12:17:53.258Z,1.27
2022-10-02T12:20:53.179Z,1.25
2022-10-02T12:23:47.627Z,1.67
2022-10-02T12:26:55.428Z,1.58
2022-10-02T12:29:34.125Z,1.90
2022-10-02T12:32:08.278Z,1.70
2022-10-02T12:35:06.685Z,1.70
2022-10-02T12:37:58.937Z,2.88
2022-10-02T12:40:48.065Z,3.22
2022-10-02T12:43:55.528Z,3.45
2022-10-02T12:46:41.046Z,2.28
2022-10-02T12:49:25.355Z,2.53
2022-10-02T12:52:30.815Z,3.55
2022-10-02T12:55:25.587Z,2.10
2022-10-02T12:58:23.688Z,2.55
2022-10-02T13:01:06.013Z,2.47
2022-10-02T13:03:51.911Z,2.42
2022-10-02T13:07:08.142Z,2.75
2022-10-02T13:09:50.609Z,2.03
2022-10-02T13:12:28.581Z,3.05
2022-10-02T13:15:23.177Z,2.67
2022-10-02T13:18:20.726Z,2.40
2022-10-02T13:21:13.527Z,2.90
2022-10-02T13:23:54.057Z,2.80
2022-10-02T13:26:33.397Z,2.08
2022-10-02T13:29:27.382Z,2.50
2022-10-02T13:35:22.879Z,2.75
2022-10-02T13:38:03.133Z,3.00
2022-10-02T13:40:41.235Z,3.05
2022-10-02T13:43:26.998Z,4.47
2022-10-02T13:46:05.555Z,4.10
2022-10-02T13:49:06.830Z,6.32
2022-10-02T13:51:55.081Z,3.92
2022-10-02T13:54:41.395Z,4.45
2022-10-02T13:57:17.662Z,4.22
2022-10-02T14:00:10.626Z,4.38
2022-10-02T14:03:02.626Z,4.75
2022-10-02T14:05:43.411Z,4.25
2022-10-02T14:08:44.999Z,4.53
2022-10-02T14:11:29.026Z,4.13
2022-10-02T14:14:16.322Z,4.45
2022-10-02T14:16:56.027Z,4.50
2022-10-02T14:19:52.878Z,4.70
2022-10-02T14:22:44.312Z,4.60
2022-10-02T14:25:30.733Z,4.30
2022-10-02T14:28:54.902Z,4.13
2022-10-02T14:31:43.922Z,3.50
2022-10-02T14:34:56.523Z,3.80
2022-10-02T14:38:08.055Z,4.13
2022-10-02T14:41:00.773Z,4.05
2022-10-02T14:43:55.027Z,4.15
2022-10-02T14:46:38.804Z,3.70
2022-10-02T14:52:08.569Z,3.50
2022-10-02T14:55:24.822Z,4.25
2022-10-02T14:58:12.439Z,3.70
2022-10-02T15:00:42.461Z,3.97
2022-10-02T15:03:37.121Z,3.83
2022-10-02T15:06:10.751Z,3.67
2022-10-02T15:08:49.964Z,4.15
2022-10-02T15:11:35.743Z,4.00
2022-10-02T15:14:21.633Z,3.75
2022-10-02T15:17:28.864Z,3.60
2022-10-02T15:20:24.310Z,4.00
2022-10-02T15:23:03.833Z,4.90
2022-10-02T15:25:40.595Z,5.05
2022-10-02T15:28:35.667Z,4.20
2022-10-02T15:31:39.957Z,4.07
2022-10-02T15:34:34.157Z,4.00
2022-10-02T15:37:18.307Z,4.00
2022-10-02T15:39:45.450Z,3.85
2022-10-02T15:42:21.375Z,4.35
2022-10-02T15:45:06.672Z,4.75
2022-10-02T15:47:48.884Z,5.07
2022-10-02T15:50:42.354Z,5.05
2022-10-02T15:53:34.970Z,5.15
2022-10-02T15:56:23.487Z,4.82
2022-10-02T15:59:35.231Z,4.60
2022-10-02T16:02:05.063Z,4.10
2022-10-02T16:05:03.438Z,4.55
2022-10-02T16:08:01.500Z,3.83
2022-10-02T16:10:57.201Z,3.45
2022-10-02T16:14:05.997Z,3.20
2022-10-02T16:16:36.552Z,3.50
2022-10-02T16:19:34.729Z,3.83
2022-10-02T16:22:38.773Z,3.47
2022-10-02T16:25:33.574Z,2.65
2022-10-02T16:28:19.282Z,2.70
2022-10-02T16:30:56.096Z,2.88
2022-10-02T16:33:31.786Z,2.35
2022-10-02T16:36:33.679Z,2.70
2022-10-02T16:39:19.578Z,2.20
2022-10-02T16:41:59.470Z,3.22
2022-10-02T16:45:00.220Z,2.95
2022-10-02T16:47:44.699Z,2.70
2022-10-02T16:50:42.185Z,2.00
2022-10-02T16:53:42.696Z,2.17
2022-10-02T16:56:16.204Z,1.58
2022-10-02T17:01:59.037Z,1.63
2022-10-02T17:05:18.282Z,1.70
2022-10-02T17:08:06.193Z,2.05
2022-10-02T17:10:53.196Z,2.33
2022-10-02T17:13:37.536Z,2.10
2022-10-02T17:16:23.652Z,1.92
2022-10-02T17:18:59.191Z,2.40
2022-10-02T17:21:48.170Z,2.28
2022-10-02T17:24:38.889Z,2.60
2022-10-02T17:27:36.722Z,2.45
2022-10-02T17:30:23.812Z,3.58
2022-10-02T17:33:07.889Z,4.30
2022-10-02T17:35:43.649Z,4.20
2022-10-02T17:38:10.900Z,3.55
2022-10-02T17:41:12.915Z,3.92
2022-10-02T17:43:51.704Z,2.70
2022-10-02T17:46:53.105Z,2.50
2022-10-02T17:50:07.495Z,2.45
2022-10-02T17:53:21.273Z,2.47
2022-10-02T17:56:30.060Z,2.30
2022-10-02T17:59:21.808Z,5.35
2022-10-02T18:02:15.604Z,4.80
2022-10-02T18:04:49.062Z,6.55
2022-10-02T18:07:43.380Z,8.18
2022-10-02T18:10:48.441Z,5.82
2022-10-02T18:13:39.347Z,4.72
2022-10-02T18:16:45.024Z,5.07
2022-10-02T18:19:27.916Z,6.05
2022-10-02T18:22:30.683Z,5.60
2022-10-02T18:25:25.287Z,4.05
2022-10-02T18:28:00.656Z,3.63
2022-10-02T18:31:11.156Z,3.38
2022-10-02T18:34:06.873Z,2.90
2022-10-02T18:37:01.552Z,2.55
2022-10-02T18:39:44.782Z,2.95
2022-10-02T18:42:57.454Z,3.15
2022-10-02T18:45:50.954Z,3.55
2022-10-02T18:48:42.527Z,3.00
2022-10-02T18:51:48.575Z,3.28
2022-10-02T18:54:27.660Z,2.72
2022-10-02T18:56:58.366Z,2.47
2022-10-02T18:59:46.035Z,2.70
2022-10-02T19:02:26.571Z,2.63
2022-10-02T19:05:09.649Z,2.55
2022-10-02T19:07:51.912Z,2.30
2022-10-02T19:10:26.284Z,2.30
2022-10-02T19:13:01.970Z,2.70
2022-10-02T19:15:33.804Z,2.47
2022-10-02T19:18:15.029Z,2.70
2022-10-02T19:20:53.247Z,2.10
2022-10-02T19:23:27.730Z,2.40
2022-10-02T19:25:58.009Z,2.33
2022-10-02T19:28:30.002Z,2.63
2022-10-02T19:31:04.320Z,3.08
2022-10-02T19:33:51.246Z,2.78
2022-10-02T19:36:23.643Z,3.53
2022-10-02T19:39:02.497Z,3.42
2022-10-02T19:41:36.428Z,4.18
2022-10-02T19:44:08.137Z,3.65
2022-10-02T19:46:49.071Z,4.13
2022-10-02T19:49:38.372Z,4.07
2022-10-02T19:52:29.796Z,3.40
2022-10-02T19:55:00.300Z,3.22
2022-10-02T19:57:34.957Z,3.15
2022-10-02T20:00:04.285Z,2.90
2022-10-02T20:02:36.667Z,3.88
2022-10-02T20:05:07.191Z,3.10
2022-10-02T20:07:38.612Z,2.97
2022-10-02T20:10:26.265Z,2.88
2022-10-02T20:13:00.503Z,2.72
2022-10-02T20:16:18.540Z,2.58
2022-10-02T20:18:50.427Z,3.30
2022-10-02T20:21:27.703Z,2.65
2022-10-02T20:23:58.407Z,3.30
2022-10-02T20:26:31.138Z,3.13
2022-10-02T20:29:03.845Z,2.67
2022-10-02T20:31:43.474Z,2.80
2022-10-02T20:35:06.769Z,2.90
2022-10-02T20:37:39.541Z,3.67
2022-10-02T20:40:18.357Z,2.92
2022-10-02T20:42:48.656Z,3.20
2022-10-02T20:45:16.842Z,3.33
2022-10-02T20:48:04.315Z,3.47
2022-10-02T20:50:43.618Z,3.45
2022-10-02T20:53:30.034Z,3.00
2022-10-02T20:56:14.032Z,3.75
2022-10-02T20:59:15.041Z,4.60
2022-10-02T21:02:27.576Z,4.88
2022-10-02T21:05:20.562Z,4.25
2022-10-02T21:08:42.011Z,4.95
2022-10-02T21:11:32.548Z,4.88
2022-10-02T21:14:17.520Z,4.45
2022-10-02T21:17:06.436Z,4.13
2022-10-02T21:20:27.732Z,4.28
2022-10-02T21:23:26.163Z,4.55
2022-10-02T21:26:26.958Z,4.38
2022-10-02T21:29:34.683Z,4.10
2022-10-02T21:32:22.769Z,4.40
2022-10-02T21:35:27.335Z,4.57
2022-10-02T21:38:16.124Z,4.53
2022-10-02T21:41:09.272Z,4.20
2022-10-02T21:44:17.928Z,4.40
2022-10-02T21:46:59.511Z,4.88
2022-10-02T21:50:01.485Z,4.72
2022-10-02T21:52:37.536Z,5.00
2022-10-02T21:55:04.684Z,4.72
2022-10-02T21:57:44.137Z,4.15
2022-10-02T22:00:26.821Z,4.65
2022-10-02T22:03:27.656Z,4.43
2022-10-02T22:06:25.829Z,4.30
2022-10-02T22:09:27.454Z,4.28
2022-10-02T22:12:06.853Z,4.15
2022-10-02T22:14:46.881Z,3.97
2022-10-02T22:17:31.859Z,4.40
2022-10-02T22:20:27.754Z,4.30
2022-10-02T22:23:07.715Z,5.15
2022-10-02T22:26:08.231Z,5.50
2022-10-02T22:29:13.048Z,5.53
2022-10-02T22:32:19.030Z,5.35
2022-10-02T22:35:09.251Z,5.00
2022-10-02T22:37:49.578Z,6.78
2022-10-02T22:40:26.259Z,6.20
2022-10-02T22:43:01.440Z,6.30
2022-10-02T22:45:43.272Z,6.10
2022-10-02T22:48:22.183Z,4.88
2022-10-02T22:51:37.286Z,5.15
2022-10-02T22:54:24.334Z,5.63
2022-10-02T22:57:04.239Z,5.60
2022-10-02T23:00:12.435Z,4.78
2022-10-02T23:02:53.238Z,5.72
2022-10-02T23:05:30.988Z,4.63
2022-10-02T23:08:11.589Z,4.10
2022-10-02T23:10:43.597Z,3.42
2022-10-02T23:13:23.616Z,2.70
2022-10-02T23:16:21.657Z,3.22
2022-10-02T23:19:00.250Z,3.00
2022-10-02T23:21:48.013Z,3.70
2022-10-02T23:24:26.780Z,3.70
2022-10-02T23:26:58.311Z,3.30
2022-10-02T23:29:57.635Z,3.30
2022-10-02T23:32:43.490Z,3.42
2022-10-02T23:35:38.840Z,3.42
2022-10-02T23:38:12.060Z,3.38
2022-10-02T23:41:46.610Z,3.58
2022-10-02T23:44:44.894Z,3.25
2022-10-02T23:47:20.900Z,2.80
2022-10-02T23:49:52.481Z,2.80
2022-10-02T23:52:47.161Z,2.78
2022-10-02T23:55:23.104Z,2.60
2022-10-02T23:58:15.183Z,5.35
